createdAt,value
2022-09-25T00:00:57.289Z,57.54
2022-09-25T00:02:59.027Z,57.48
2022-09-25T00:05:00.649Z,57.52
2022-09-25T00:07:02.602Z,57.39
2022-09-25T00:09:06.838Z,57.57
2022-09-25T00:11:16.744Z,57.20
2022-09-25T00:13:21.135Z,57.01
2022-09-25T00:15:23.164Z,57.41
2022-09-25T00:17:24.789Z,57.61
2022-09-25T00:19:45.544Z,57.53
2022-09-25T00:21:53.093Z,57.42
2022-09-25T00:23:54.934Z,57.90
2022-09-25T00:25:57.330Z,58.39
2022-09-25T00:27:59.237Z,58.50
2022-09-25T00:30:00.934Z,58.65
2022-09-25T00:32:03.625Z,58.11
2022-09-25T00:34:06.056Z,58.27
2022-09-25T00:36:10.098Z,58.21
2022-09-25T00:38:11.710Z,58.03
2022-09-25T00:40:14.730Z,58.63
2022-09-25T00:42:20.596Z,58.91
2022-09-25T00:44:41.115Z,59.33
2022-09-25T00:46:44.270Z,59.89
2022-09-25T00:48:52.120Z,59.37
2022-09-25T00:50:55.620Z,59.43
2022-09-25T00:53:07.469Z,59.76
2022-09-25T00:55:09.891Z,58.83
2022-09-25T00:57:14.860Z,58.26
2022-09-25T00:59:30.043Z,58.74
2022-09-25T01:01:31.751Z,58.87
2022-09-25T01:03:34.254Z,58.74
2022-09-25T01:05:38.920Z,58.53
2022-09-25T01:07:43.198Z,58.58
2022-09-25T01:09:45.939Z,59.14
2022-09-25T01:11:47.923Z,58.92
2022-09-25T01:13:49.526Z,59.25
2022-09-25T01:16:38.417Z,59.74
2022-09-25T01:18:52.181Z,59.87
2022-09-25T01:21:10.588Z,60.12
2022-09-25T01:23:37.095Z,60.09
2022-09-25T01:26:16.204Z,59.92
2022-09-25T01:28:29.707Z,59.72
2022-09-25T01:30:34.103Z,60.15
2022-09-25T01:32:58.925Z,60.36
2022-09-25T01:35:22.162Z,60.74
2022-09-25T01:37:32.859Z,60.84
2022-09-25T01:39:38.715Z,60.77
2022-09-25T01:42:08.662Z,59.89
2022-09-25T01:44:14.490Z,60.43
2022-09-25T01:46:19.555Z,60.69
2022-09-25T01:48:25.142Z,60.34
2022-09-25T01:50:47.017Z,59.68
2022-09-25T01:52:51.768Z,59.77
2022-09-25T01:54:56.212Z,59.63
2022-09-25T01:57:04.607Z,59.46
2022-09-25T01:59:24.513Z,59.48
2022-09-25T02:01:29.728Z,59.85
2022-09-25T02:03:37.372Z,60.06
2022-09-25T02:05:46.264Z,60.45
2022-09-25T02:07:58.717Z,60.43
2022-09-25T02:10:05.396Z,60.75
2022-09-25T02:12:14.707Z,60.95
2022-09-25T02:14:46.885Z,61.14
2022-09-25T02:16:52.867Z,61.30
2022-09-25T02:19:13.283Z,61.25
2022-09-25T02:21:21.167Z,61.38
2022-09-25T02:23:24.946Z,61.37
2022-09-25T02:25:38.677Z,61.40
2022-09-25T02:27:40.555Z,61.08
2022-09-25T02:29:44.887Z,60.53
2022-09-25T02:31:53.729Z,60.41
2022-09-25T02:33:56.148Z,60.34
2022-09-25T02:35:59.333Z,60.52
2022-09-25T02:38:01.101Z,60.82
2022-09-25T02:40:04.098Z,61.25
2022-09-25T02:42:23.629Z,60.89
2022-09-25T02:44:46.860Z,60.71
2022-09-25T02:47:27.322Z,60.77
2022-09-25T02:49:38.082Z,60.97
2022-09-25T02:51:43.653Z,60.73
2022-09-25T02:54:12.906Z,60.46
2022-09-25T02:56:29.133Z,61.97
2022-09-25T02:58:54.023Z,63.19
2022-09-25T03:00:56.701Z,63.81
2022-09-25T03:02:59.994Z,64.58
2022-09-25T03:05:02.902Z,63.64
2022-09-25T03:07:05.511Z,63.78
2022-09-25T03:09:09.028Z,63.20
2022-09-25T03:11:14.327Z,62.62
2022-09-25T03:13:22.249Z,62.78
2022-09-25T03:15:24.584Z,62.55
2022-09-25T03:17:26.225Z,62.85
2022-09-25T03:19:29.677Z,62.63
2022-09-25T03:21:32.067Z,62.36
2022-09-25T03:23:33.683Z,62.19
2022-09-25T03:25:35.254Z,61.98
2022-09-25T03:27:36.860Z,62.74
2022-09-25T03:29:38.641Z,62.69
2022-09-25T03:31:42.735Z,62.80
2022-09-25T03:33:45.031Z,62.48
2022-09-25T03:35:46.640Z,62.80
2022-09-25T03:37:48.231Z,62.61
2022-09-25T03:39:49.842Z,62.76
2022-09-25T03:41:51.520Z,62.80
2022-09-25T03:43:53.878Z,62.97
2022-09-25T03:45:55.581Z,62.82
2022-09-25T03:47:57.205Z,62.54
2022-09-25T03:49:58.755Z,62.34
2022-09-25T03:52:00.373Z,63.23
2022-09-25T03:54:03.185Z,64.43
2022-09-25T03:56:07.673Z,63.92
2022-09-25T03:58:09.461Z,64.40
2022-09-25T04:00:11.819Z,63.93
2022-09-25T04:02:13.571Z,63.35
2022-09-25T04:04:15.213Z,63.56
2022-09-25T04:06:20.080Z,63.74
2022-09-25T04:08:23.199Z,63.41
2022-09-25T04:10:24.754Z,64.00
2022-09-25T04:12:26.832Z,64.10
2022-09-25T04:14:28.401Z,63.44
2022-09-25T04:16:30.415Z,63.90
2022-09-25T04:18:32.938Z,63.63
2022-09-25T04:20:35.350Z,63.31
2022-09-25T04:22:36.956Z,63.41
2022-09-25T04:24:50.554Z,62.43
2022-09-25T04:26:53.742Z,62.47
2022-09-25T04:28:55.759Z,62.88
2022-09-25T04:30:57.387Z,62.99
2022-09-25T04:33:17.993Z,62.30
2022-09-25T04:35:19.553Z,62.54
2022-09-25T04:37:26.343Z,62.34
2022-09-25T04:39:28.190Z,62.40
2022-09-25T04:41:29.775Z,62.21
2022-09-25T04:43:32.703Z,62.36
2022-09-25T04:45:36.875Z,62.06
2022-09-25T04:47:38.434Z,62.37
2022-09-25T04:49:40.229Z,62.01
2022-09-25T04:51:41.792Z,62.58
2022-09-25T04:53:43.401Z,62.10
2022-09-25T04:55:46.339Z,62.65
2022-09-25T04:57:59.771Z,62.33
2022-09-25T05:00:02.003Z,62.05
2022-09-25T05:02:03.837Z,62.26
2022-09-25T05:04:08.698Z,61.58
2022-09-25T05:06:10.666Z,61.77
2022-09-25T05:08:13.930Z,61.61
2022-09-25T05:10:15.601Z,61.37
2022-09-25T05:12:17.167Z,61.86
2022-09-25T05:14:19.037Z,60.98
2022-09-25T05:16:20.786Z,60.90
2022-09-25T05:18:24.217Z,60.65
2022-09-25T05:20:25.928Z,60.22
2022-09-25T05:22:27.752Z,60.13
2022-09-25T05:24:30.217Z,59.98
2022-09-25T05:26:34.455Z,59.68
2022-09-25T05:28:36.066Z,59.26
2022-09-25T05:30:38.956Z,59.22
2022-09-25T05:32:40.609Z,58.92
2022-09-25T05:34:42.244Z,58.98
2022-09-25T05:36:43.866Z,59.04
2022-09-25T05:38:45.468Z,59.09
2022-09-25T05:40:47.304Z,59.45
2022-09-25T05:42:49.249Z,60.07
2022-09-25T05:44:50.934Z,61.30
2022-09-25T05:46:52.580Z,61.88
2022-09-25T05:48:54.947Z,61.45
2022-09-25T05:50:57.443Z,61.68
2022-09-25T05:53:00.696Z,62.53
2022-09-25T05:55:03.628Z,62.30
2022-09-25T05:57:05.227Z,61.94
2022-09-25T05:59:07.031Z,61.72
2022-09-25T06:01:08.789Z,60.67
2022-09-25T06:03:11.147Z,60.97
2022-09-25T06:05:12.843Z,60.07
2022-09-25T06:07:14.537Z,59.36
2022-09-25T06:09:16.213Z,59.21
2022-09-25T06:11:17.777Z,58.41
2022-09-25T06:13:19.644Z,58.14
2022-09-25T06:15:22.907Z,57.40
2022-09-25T06:17:24.488Z,56.82
2022-09-25T06:19:26.915Z,56.53
2022-09-25T06:21:28.519Z,56.26
2022-09-25T06:23:30.639Z,55.34
2022-09-25T06:25:36.618Z,54.89
2022-09-25T06:27:38.291Z,54.19
2022-09-25T06:29:39.855Z,54.24
2022-09-25T06:31:41.521Z,54.94
2022-09-25T06:33:43.934Z,54.28
2022-09-25T06:35:47.699Z,53.97
2022-09-25T06:37:49.178Z,54.54
2022-09-25T06:39:50.738Z,54.41
2022-09-25T06:41:54.049Z,53.58
2022-09-25T06:43:55.722Z,52.78
2022-09-25T06:46:02.236Z,52.90
2022-09-25T06:48:13.223Z,52.79
2022-09-25T06:50:15.145Z,52.00
2022-09-25T06:52:17.016Z,51.83
2022-09-25T06:54:18.804Z,51.47
2022-09-25T06:56:22.116Z,52.00
2022-09-25T06:58:25.383Z,52.30
2022-09-25T07:00:27.661Z,51.44
2022-09-25T07:02:47.964Z,52.15
2022-09-25T07:04:51.577Z,52.53
2022-09-25T07:06:56.829Z,52.78
2022-09-25T07:08:58.538Z,52.46
2022-09-25T07:11:00.705Z,53.12
2022-09-25T07:13:02.311Z,53.83
2022-09-25T07:15:04.582Z,54.46
2022-09-25T07:17:06.138Z,53.68
2022-09-25T07:19:27.949Z,53.29
2022-09-25T07:21:32.602Z,53.37
2022-09-25T07:23:34.698Z,53.01
2022-09-25T07:25:36.288Z,51.96
2022-09-25T07:27:37.886Z,50.79
2022-09-25T07:29:39.446Z,50.09
2022-09-25T07:31:43.033Z,49.82
2022-09-25T07:33:45.317Z,49.61
2022-09-25T07:35:46.956Z,49.77
2022-09-25T07:37:48.583Z,49.59
2022-09-25T07:39:50.372Z,50.04
2022-09-25T07:41:54.587Z,49.15
2022-09-25T07:46:19.520Z,49.33
2022-09-25T07:48:21.647Z,48.91
2022-09-25T07:50:23.304Z,49.07
2022-09-25T07:52:25.307Z,48.63
2022-09-25T07:54:26.939Z,49.59
2022-09-25T07:56:28.518Z,49.94
2022-09-25T07:58:30.612Z,49.66
2022-09-25T08:00:33.117Z,48.82
2022-09-25T08:02:35.340Z,48.78
2022-09-25T08:04:36.981Z,47.70
2022-09-25T08:06:38.712Z,47.39
2022-09-25T08:08:41.560Z,46.83
2022-09-25T08:10:43.340Z,46.97
2022-09-25T08:12:45.086Z,46.81
2022-09-25T08:14:46.746Z,46.12
2022-09-25T08:16:49.430Z,45.61
2022-09-25T08:18:51.117Z,45.55
2022-09-25T08:20:52.715Z,44.87
2022-09-25T08:22:55.372Z,43.99
2022-09-25T08:24:56.979Z,43.66
2022-09-25T08:26:58.671Z,43.37
2022-09-25T08:29:00.418Z,42.66
2022-09-25T08:31:04.174Z,42.94
2022-09-25T08:33:14.612Z,43.71
2022-09-25T08:35:17.198Z,43.54
2022-09-25T08:37:19.620Z,43.80
2022-09-25T08:39:21.200Z,43.95
2022-09-25T08:41:29.679Z,42.93
2022-09-25T08:43:32.523Z,42.90
2022-09-25T08:45:55.412Z,42.87
2022-09-25T08:48:17.094Z,42.25
2022-09-25T08:50:25.603Z,41.72
2022-09-25T08:52:27.254Z,41.13
2022-09-25T08:54:31.365Z,41.01
2022-09-25T08:56:35.148Z,40.90
2022-09-25T08:58:43.214Z,40.78
2022-09-25T09:00:45.737Z,41.18
2022-09-25T09:02:54.870Z,41.54
2022-09-25T09:05:01.286Z,40.95
2022-09-25T09:07:26.244Z,40.82
2022-09-25T09:09:33.267Z,39.94
2022-09-25T09:11:52.790Z,39.01
2022-09-25T09:14:04.353Z,38.35
2022-09-25T09:16:09.626Z,39.28
2022-09-25T09:18:24.027Z,39.51
2022-09-25T09:20:38.039Z,39.24
2022-09-25T09:22:40.534Z,39.01
2022-09-25T09:24:52.437Z,38.22
2022-09-25T09:27:24.966Z,38.00
2022-09-25T09:29:29.628Z,37.65
2022-09-25T09:31:50.153Z,37.00
2022-09-25T09:34:01.731Z,37.62
2022-09-25T09:36:34.579Z,37.76
2022-09-25T09:38:57.224Z,38.28
2022-09-25T09:41:24.860Z,38.41
2022-09-25T09:43:57.214Z,39.03
2022-09-25T09:46:08.717Z,39.20
2022-09-25T09:48:13.147Z,38.24
2022-09-25T09:50:33.573Z,37.60
2022-09-25T09:52:40.778Z,38.09
2022-09-25T09:54:53.393Z,38.31
2022-09-25T09:56:56.858Z,38.01
2022-09-25T09:59:13.208Z,37.90
2022-09-25T10:01:39.729Z,37.29
2022-09-25T10:03:39.098Z,37.15
2022-09-25T10:05:47.732Z,36.50
2022-09-25T10:07:51.126Z,35.48
2022-09-25T10:09:54.732Z,36.02
2022-09-25T10:12:01.061Z,35.87
2022-09-25T10:14:04.709Z,35.94
2022-09-25T10:16:08.549Z,36.40
2022-09-25T10:18:11.104Z,36.64
2022-09-25T10:20:20.405Z,36.74
2022-09-25T10:22:26.502Z,35.94
2022-09-25T10:24:51.922Z,35.30
2022-09-25T10:26:53.788Z,35.18
2022-09-25T10:29:00.609Z,35.63
2022-09-25T10:31:03.635Z,35.93
2022-09-25T10:33:14.472Z,36.06
2022-09-25T10:35:19.542Z,35.61
2022-09-25T10:37:22.212Z,35.15
2022-09-25T10:39:46.933Z,35.38
2022-09-25T10:41:49.135Z,35.30
2022-09-25T10:43:54.965Z,34.57
2022-09-25T10:46:08.662Z,34.54
2022-09-25T10:48:50.660Z,34.28
2022-09-25T10:51:07.540Z,33.79
2022-09-25T10:53:28.414Z,33.88
2022-09-25T10:55:35.307Z,33.42
2022-09-25T10:57:38.642Z,33.28
2022-09-25T10:59:40.545Z,32.66
2022-09-25T11:01:43.196Z,32.73
2022-09-25T11:03:55.275Z,32.85
2022-09-25T11:06:05.740Z,33.19
2022-09-25T11:08:07.912Z,33.58
2022-09-25T11:10:19.787Z,34.00
2022-09-25T11:12:26.678Z,34.04
2022-09-25T11:14:33.317Z,33.92
2022-09-25T11:16:48.082Z,33.77
2022-09-25T11:18:51.926Z,33.24
2022-09-25T11:21:04.315Z,33.33
2022-09-25T11:23:16.064Z,33.11
2022-09-25T11:25:23.373Z,32.56
2022-09-25T11:27:33.081Z,32.84
2022-09-25T11:29:44.325Z,32.80
2022-09-25T11:31:58.889Z,32.73
2022-09-25T11:34:19.300Z,32.50
2022-09-25T11:36:27.770Z,32.29
2022-09-25T11:38:52.927Z,32.04
2022-09-25T11:41:16.089Z,31.68
2022-09-25T11:43:47.016Z,31.04
2022-09-25T11:45:53.605Z,31.69
2022-09-25T11:48:00.123Z,32.27
2022-09-25T11:50:02.192Z,32.22
2022-09-25T11:52:04.177Z,32.29
2022-09-25T11:54:34.851Z,32.11
2022-09-25T11:56:50.195Z,31.18
2022-09-25T11:59:11.068Z,31.38
2022-09-25T12:01:24.959Z,30.58
2022-09-25T12:03:35.332Z,30.80
2022-09-25T12:05:42.865Z,30.38
2022-09-25T12:07:56.839Z,29.42
2022-09-25T12:10:16.289Z,30.13
2022-09-25T12:12:41.667Z,30.15
2022-09-25T12:15:01.600Z,30.63
2022-09-25T12:17:32.617Z,30.69
2022-09-25T12:19:53.022Z,30.03
2022-09-25T12:22:01.541Z,30.75
2022-09-25T12:24:28.114Z,30.86
2022-09-25T12:26:48.372Z,30.71
2022-09-25T12:29:20.980Z,30.48
2022-09-25T12:31:34.466Z,30.82
2022-09-25T12:33:52.559Z,30.62
2022-09-25T12:36:00.020Z,30.37
2022-09-25T12:38:19.258Z,30.18
2022-09-25T12:40:29.547Z,29.97
2022-09-25T12:42:46.511Z,30.67
2022-09-25T12:45:26.340Z,30.18
2022-09-25T12:47:46.645Z,29.65
2022-09-25T12:50:14.211Z,29.99
2022-09-25T12:52:17.583Z,31.03
2022-09-25T12:54:35.831Z,30.12
2022-09-25T12:56:57.417Z,29.50
2022-09-25T12:59:09.824Z,29.90
2022-09-25T13:01:21.939Z,29.90
2022-09-25T13:03:26.773Z,30.18
2022-09-25T13:05:44.507Z,30.94
2022-09-25T13:07:53.151Z,30.75
2022-09-25T13:09:54.862Z,31.35
2022-09-25T13:12:03.166Z,31.91
2022-09-25T13:14:06.091Z,32.06
2022-09-25T13:16:07.735Z,31.45
2022-09-25T13:18:16.483Z,31.56
2022-09-25T13:20:27.523Z,31.79
2022-09-25T13:22:32.275Z,31.37
2022-09-25T13:24:53.014Z,30.70
2022-09-25T13:26:55.896Z,30.71
2022-09-25T13:29:28.064Z,30.69
2022-09-25T13:31:32.290Z,30.31
2022-09-25T13:33:47.942Z,30.46
2022-09-25T13:35:49.545Z,30.84
2022-09-25T13:37:54.334Z,30.22
2022-09-25T13:40:14.950Z,30.27
2022-09-25T13:42:29.834Z,29.61
2022-09-25T13:44:43.650Z,29.95
2022-09-25T13:46:45.209Z,30.78
2022-09-25T13:48:47.802Z,30.68
2022-09-25T13:50:51.601Z,30.87
2022-09-25T13:53:20.814Z,30.89
2022-09-25T13:55:24.049Z,30.94
2022-09-25T13:57:59.920Z,30.96
2022-09-25T14:00:06.244Z,30.86
2022-09-25T14:02:34.967Z,30.38
2022-09-25T14:04:37.776Z,30.67
2022-09-25T14:06:41.636Z,31.20
2022-09-25T14:08:44.083Z,31.46
2022-09-25T14:10:51.804Z,31.54
2022-09-25T14:12:54.177Z,31.57
2022-09-25T14:15:07.427Z,31.34
2022-09-25T14:17:15.992Z,30.88
2022-09-25T14:19:27.724Z,30.97
2022-09-25T14:21:29.876Z,31.00
2022-09-25T14:23:33.421Z,31.02
2022-09-25T14:25:40.596Z,31.04
2022-09-25T14:27:42.170Z,31.24
2022-09-25T14:29:43.736Z,31.16
2022-09-25T14:32:25.858Z,30.95
2022-09-25T14:35:01.684Z,30.46
2022-09-25T14:37:14.279Z,30.34
2022-09-25T14:39:37.422Z,30.47
2022-09-25T14:42:19.661Z,30.38
2022-09-25T14:44:45.734Z,30.58
2022-09-25T14:46:50.871Z,30.72
2022-09-25T14:49:28.748Z,30.55
2022-09-25T14:51:41.829Z,30.36
2022-09-25T14:53:46.694Z,29.96
2022-09-25T14:55:51.166Z,30.53
2022-09-25T14:57:52.967Z,30.57
2022-09-25T14:59:57.940Z,30.43
2022-09-25T15:02:02.417Z,30.96
2022-09-25T15:04:06.307Z,31.09
2022-09-25T15:06:11.472Z,31.29
2022-09-25T15:08:36.170Z,31.25
2022-09-25T15:10:39.029Z,31.36
2022-09-25T15:12:45.777Z,31.36
2022-09-25T15:15:03.184Z,30.80
2022-09-25T15:17:22.221Z,30.27
2022-09-25T15:19:31.249Z,30.57
2022-09-25T15:21:34.502Z,30.50
2022-09-25T15:23:38.633Z,30.33
2022-09-25T15:25:43.580Z,30.53
2022-09-25T15:27:45.448Z,30.73
2022-09-25T15:29:47.836Z,30.69
2022-09-25T15:31:51.335Z,31.06
2022-09-25T15:34:12.811Z,30.93
2022-09-25T15:36:23.778Z,30.80
2022-09-25T15:38:44.547Z,30.89
2022-09-25T15:40:55.513Z,31.22
2022-09-25T15:42:57.625Z,31.14
2022-09-25T15:45:03.653Z,31.27
2022-09-25T15:47:05.682Z,30.52
2022-09-25T15:49:07.910Z,30.33
2022-09-25T15:51:19.535Z,29.91
2022-09-25T15:53:28.256Z,29.72
2022-09-25T15:55:31.333Z,29.38
2022-09-25T15:57:33.360Z,29.50
2022-09-25T15:59:59.561Z,29.41
2022-09-25T16:02:34.340Z,29.70
2022-09-25T16:04:49.377Z,29.51
2022-09-25T16:06:51.237Z,30.01
2022-09-25T16:09:08.846Z,29.70
2022-09-25T16:11:10.406Z,29.92
2022-09-25T16:13:23.242Z,30.10
2022-09-25T16:15:27.772Z,29.93
2022-09-25T16:17:35.621Z,30.07
2022-09-25T16:19:37.301Z,30.20
2022-09-25T16:21:40.230Z,30.32
2022-09-25T16:23:43.134Z,30.63
2022-09-25T16:25:45.117Z,30.96
2022-09-25T16:27:47.087Z,31.22
2022-09-25T16:29:48.771Z,31.46
2022-09-25T16:31:54.318Z,31.73
2022-09-25T16:33:57.484Z,31.91
2022-09-25T16:36:17.038Z,31.75
2022-09-25T16:38:38.245Z,31.94
2022-09-25T16:40:40.200Z,32.01
2022-09-25T16:42:42.387Z,32.01
2022-09-25T16:44:47.193Z,32.37
2022-09-25T16:47:18.926Z,33.00
2022-09-25T16:49:20.475Z,33.32
2022-09-25T16:51:23.234Z,33.54
2022-09-25T16:53:26.910Z,34.03
2022-09-25T16:55:33.315Z,34.62
2022-09-25T16:57:35.434Z,35.12
2022-09-25T16:59:37.034Z,35.34
2022-09-25T17:01:39.709Z,35.92
2022-09-25T17:03:50.912Z,35.75
2022-09-25T17:05:54.571Z,36.09
2022-09-25T17:08:14.924Z,35.98
2022-09-25T17:10:19.462Z,37.02
2022-09-25T17:12:24.593Z,37.42
2022-09-25T17:14:27.668Z,38.56
2022-09-25T17:16:31.094Z,38.94
2022-09-25T17:18:32.847Z,38.98
2022-09-25T17:20:35.603Z,39.48
2022-09-25T17:22:37.293Z,39.73
2022-09-25T17:24:38.978Z,39.74
2022-09-25T17:26:40.779Z,40.14
2022-09-25T17:28:42.706Z,39.98
2022-09-25T17:30:45.311Z,40.32
2022-09-25T17:32:46.988Z,40.26
2022-09-25T17:34:48.817Z,40.38
2022-09-25T17:36:51.110Z,40.24
2022-09-25T17:38:53.212Z,40.24
2022-09-25T17:41:00.493Z,40.24
2022-09-25T17:43:04.843Z,40.54
2022-09-25T17:45:37.144Z,40.40
2022-09-25T17:47:38.834Z,40.64
2022-09-25T17:49:41.411Z,40.86
2022-09-25T17:51:43.320Z,41.00
2022-09-25T17:53:45.867Z,40.96
2022-09-25T17:55:53.186Z,40.92
2022-09-25T17:57:55.528Z,40.86
2022-09-25T17:59:57.306Z,40.91
2022-09-25T18:01:59.768Z,41.25
2022-09-25T18:04:03.186Z,41.27
2022-09-25T18:06:05.443Z,41.31
2022-09-25T18:08:07.282Z,41.45
2022-09-25T18:10:09.590Z,41.36
2022-09-25T18:12:11.269Z,41.57
2022-09-25T18:14:14.485Z,41.89
2022-09-25T18:16:19.769Z,41.86
2022-09-25T18:18:21.755Z,41.99
2022-09-25T18:20:42.676Z,41.88
2022-09-25T18:22:44.618Z,42.00
2022-09-25T18:24:56.948Z,42.18
2022-09-25T18:26:59.413Z,41.72
2022-09-25T18:29:00.987Z,41.23
2022-09-25T18:31:02.624Z,41.23
2022-09-25T18:33:04.545Z,40.99
2022-09-25T18:35:07.450Z,40.83
2022-09-25T18:37:09.542Z,40.89
2022-09-25T18:39:13.850Z,41.18
2022-09-25T18:41:19.222Z,41.78
2022-09-25T18:43:21.145Z,41.72
2022-09-25T18:45:22.880Z,41.54
2022-09-25T18:47:24.901Z,41.61
2022-09-25T18:49:26.518Z,41.68
2022-09-25T18:51:28.178Z,41.87
2022-09-25T18:53:29.876Z,41.66
2022-09-25T18:55:31.510Z,41.78
2022-09-25T18:57:37.356Z,41.81
2022-09-25T18:59:42.018Z,42.64
2022-09-25T19:01:44.061Z,42.61
2022-09-25T19:03:51.869Z,42.46
2022-09-25T19:06:01.473Z,42.26
2022-09-25T19:08:04.924Z,42.14
2022-09-25T19:10:09.560Z,41.88
2022-09-25T19:12:17.124Z,42.17
2022-09-25T19:14:19.948Z,42.42
2022-09-25T19:16:22.004Z,42.75
2022-09-25T19:18:23.859Z,42.66
2022-09-25T19:20:25.576Z,42.86
2022-09-25T19:22:27.245Z,42.53
2022-09-25T19:24:30.758Z,43.11
2022-09-25T19:26:32.323Z,43.01
2022-09-25T19:28:34.981Z,43.33
2022-09-25T19:30:36.730Z,43.06
2022-09-25T19:32:38.300Z,43.14
2022-09-25T19:34:40.364Z,43.39
2022-09-25T19:36:42.011Z,43.54
2022-09-25T19:38:43.703Z,43.40
2022-09-25T19:40:45.409Z,43.16
2022-09-25T19:42:47.748Z,43.21
2022-09-25T19:44:49.493Z,43.21
2022-09-25T19:46:51.527Z,43.43
2022-09-25T19:48:53.155Z,43.75
2022-09-25T19:50:54.903Z,44.43
2022-09-25T19:52:56.484Z,44.13
2022-09-25T19:54:58.053Z,44.44
2022-09-25T19:57:00.326Z,44.59
2022-09-25T19:59:05.708Z,44.40
2022-09-25T20:01:10.321Z,44.58
2022-09-25T20:03:12.071Z,44.99
2022-09-25T20:05:13.809Z,44.67
2022-09-25T20:07:16.411Z,44.70
2022-09-25T20:09:18.272Z,44.92
2022-09-25T20:11:22.163Z,45.04
2022-09-25T20:13:24.233Z,44.85
2022-09-25T20:15:26.333Z,44.96
2022-09-25T20:17:28.008Z,44.91
2022-09-25T20:19:29.636Z,44.72
2022-09-25T20:21:33.552Z,44.75
2022-09-25T20:23:35.906Z,44.80
2022-09-25T20:25:37.643Z,44.93
2022-09-25T20:27:39.292Z,44.83
2022-09-25T20:29:40.887Z,44.80
2022-09-25T20:31:44.276Z,44.60
2022-09-25T20:33:45.845Z,44.71
2022-09-25T20:35:47.378Z,45.41
2022-09-25T20:37:48.993Z,45.47
2022-09-25T20:39:50.711Z,45.39
2022-09-25T20:41:52.352Z,45.26
2022-09-25T20:43:56.022Z,45.59
2022-09-25T20:45:59.349Z,45.63
2022-09-25T20:48:01.561Z,45.71
2022-09-25T20:50:05.197Z,45.61
2022-09-25T20:52:06.765Z,45.74
2022-09-25T20:54:10.055Z,45.61
2022-09-25T20:56:13.969Z,45.56
2022-09-25T20:58:15.556Z,45.65
2022-09-25T21:00:19.387Z,45.78
2022-09-25T21:02:21.325Z,45.46
2022-09-25T21:04:23.102Z,45.90
2022-09-25T21:06:27.298Z,46.52
2022-09-25T21:08:29.974Z,47.66
2022-09-25T21:10:36.186Z,47.73
2022-09-25T21:12:37.775Z,47.50
2022-09-25T21:14:39.477Z,47.23
2022-09-25T21:16:41.156Z,48.30
2022-09-25T21:18:43.235Z,48.71
2022-09-25T21:20:45.121Z,48.72
2022-09-25T21:22:47.647Z,48.58
2022-09-25T21:24:50.122Z,48.75
2022-09-25T21:26:51.837Z,48.40
2022-09-25T21:28:55.121Z,48.51
2022-09-25T21:31:01.895Z,48.38
2022-09-25T21:33:03.644Z,48.36
2022-09-25T21:35:05.547Z,48.25
2022-09-25T21:37:07.125Z,48.25
2022-09-25T21:39:09.066Z,48.44
2022-09-25T21:41:13.213Z,48.35
2022-09-25T21:43:15.212Z,48.48
2022-09-25T21:45:16.867Z,48.51
2022-09-25T21:47:19.155Z,48.53
2022-09-25T21:49:21.764Z,48.65
2022-09-25T21:51:26.445Z,48.97
2022-09-25T21:53:28.601Z,49.24
2022-09-25T21:55:30.271Z,49.59
2022-09-25T21:57:31.962Z,49.97
2022-09-25T21:59:33.607Z,50.76
2022-09-25T22:01:36.684Z,51.09
2022-09-25T22:03:40.372Z,50.88
2022-09-25T22:05:42.443Z,51.40
2022-09-25T22:07:44.202Z,51.32
2022-09-25T22:09:45.923Z,51.59
2022-09-25T22:11:48.408Z,51.28
2022-09-25T22:13:51.354Z,51.51
2022-09-25T22:16:01.055Z,51.46
2022-09-25T22:18:02.622Z,51.44
2022-09-25T22:20:05.658Z,51.65
2022-09-25T22:22:07.489Z,52.21
2022-09-25T22:24:09.953Z,51.99
2022-09-25T22:26:13.330Z,52.23
2022-09-25T22:28:14.960Z,52.18
2022-09-25T22:30:16.630Z,52.84
2022-09-25T22:32:18.275Z,52.84
2022-09-25T22:34:23.297Z,52.72
2022-09-25T22:36:26.088Z,52.57
2022-09-25T22:38:28.971Z,52.50
2022-09-25T22:40:30.757Z,52.59
2022-09-25T22:42:32.652Z,52.25
2022-09-25T22:44:34.228Z,52.27
2022-09-25T22:46:36.116Z,52.11
2022-09-25T22:48:38.771Z,52.10
2022-09-25T22:50:40.382Z,51.87
2022-09-25T22:52:42.056Z,52.14
2022-09-25T22:54:43.866Z,52.34
2022-09-25T22:56:45.467Z,52.57
2022-09-25T22:58:52.298Z,52.75
2022-09-25T23:00:54.007Z,52.31
2022-09-25T23:02:55.741Z,52.07
2022-09-25T23:04:58.882Z,52.21
2022-09-25T23:07:03.232Z,52.23
2022-09-25T23:09:07.515Z,52.16
2022-09-25T23:11:09.322Z,52.24
2022-09-25T23:13:12.220Z,53.00
2022-09-25T23:15:13.849Z,53.13
2022-09-25T23:17:15.458Z,53.50
2022-09-25T23:19:17.390Z,53.75
2022-09-25T23:21:19.221Z,53.73
2022-09-25T23:23:21.810Z,53.75
2022-09-25T23:25:23.657Z,53.60
2022-09-25T23:27:25.231Z,53.16
2022-09-25T23:29:27.054Z,53.87
2022-09-25T23:31:30.422Z,53.86
2022-09-25T23:33:33.540Z,53.50
2022-09-25T23:35:35.558Z,54.98
2022-09-25T23:37:37.233Z,55.43
2022-09-25T23:39:39.077Z,55.29
2022-09-25T23:41:40.796Z,55.15
2022-09-25T23:43:42.913Z,55.22
2022-09-25T23:45:44.529Z,55.83
2022-09-25T23:47:46.535Z,56.00
2022-09-25T23:49:48.097Z,55.82
2022-09-25T23:51:50.028Z,55.03
2022-09-25T23:53:52.004Z,54.95
2022-09-25T23:55:53.739Z,54.83
2022-09-25T23:57:55.731Z,54.54
2022-09-25T23:59:57.813Z,55.61
